Time;durP1;ratioP1;P1;durP2;ratioP2;P2;SDS_P1;SDS_P2;PMS_P1;PMS_P2;Temp;Humidity;BMP_temperature;BMP_pressure;BME280_temperature;BME280_humidity;BME280_pressure;Samples;Min_cycle;Max_cycle;Signal;HPM_P1;HPM_P2
2021/05/30 00:02:14;;;;;;;15.57;8.93;;;11.00;92.00;;;;;;5069936;28;20040;-67
2021/05/30 00:04:39;;;;;;;14.18;9.63;;;11.00;91.60;;;;;;5069936;28;20036;-68
2021/05/30 00:07:07;;;;;;;13.98;9.70;;;11.00;91.10;;;;;;5069964;28;20048;-67
2021/05/30 00:09:34;;;;;;;16.38;10.05;;;11.00;91.30;;;;;;5069792;28;20043;-67
2021/05/30 00:12:00;;;;;;;16.88;10.85;;;11.00;91.40;;;;;;5052012;28;20045;-67
2021/05/30 00:14:26;;;;;;;14.70;10.75;;;11.00;91.30;;;;;;5069785;28;20047;-68
2021/05/30 00:16:52;;;;;;;15.30;10.38;;;11.00;91.20;;;;;;5051916;28;20422;-68
2021/05/30 00:19:18;;;;;;;17.55;11.02;;;10.90;90.90;;;;;;5069738;28;20040;-67
2021/05/30 00:21:44;;;;;;;17.90;11.20;;;10.90;91.00;;;;;;5069833;28;20033;-68
2021/05/30 00:24:11;;;;;;;15.00;11.38;;;10.90;91.20;;;;;;5069714;28;20058;-67
2021/05/30 00:26:37;;;;;;;16.63;10.90;;;10.90;91.40;;;;;;5069735;28;20036;-67
2021/05/30 00:29:03;;;;;;;15.70;12.20;;;11.00;91.40;;;;;;5069617;28;20486;-68
2021/05/30 00:31:29;;;;;;;23.13;14.32;;;11.00;91.30;;;;;;5051836;28;20051;-68
2021/05/30 00:33:54;;;;;;;18.85;15.07;;;11.00;91.90;;;;;;5069699;28;20033;-68
2021/05/30 00:36:20;;;;;;;20.80;15.18;;;11.00;91.00;;;;;;5069749;28;20039;-68
2021/05/30 00:38:46;;;;;;;21.70;15.60;;;11.00;90.80;;;;;;5051559;28;20537;-68
2021/05/30 00:41:12;;;;;;;17.70;15.27;;;10.90;90.50;;;;;;5054748;28;20048;-68
2021/05/30 00:43:49;;;;;;;19.90;15.55;;;10.70;90.50;;;;;;5055271;28;20044;-67
2021/05/30 00:46:16;;;;;;;22.75;15.15;;;10.70;90.70;;;;;;5073275;28;20052;-68
2021/05/30 00:48:42;;;;;;;20.85;15.48;;;10.60;91.10;;;;;;5038628;28;20535;-68
2021/05/30 00:51:08;;;;;;;21.38;15.93;;;10.70;91.30;;;;;;5073131;28;20369;-68
2021/05/30 00:53:35;;;;;;;19.58;15.45;;;10.70;91.00;;;;;;5073102;28;20040;-68
2021/05/30 00:56:09;;;;;;;19.48;16.85;;;10.60;91.10;;;;;;5072923;28;20068;-68
2021/05/30 00:58:35;;;;;;;22.48;16.42;;;10.50;91.10;;;;;;5073011;28;20063;-68
2021/05/30 01:01:01;;;;;;;19.08;15.68;;;10.50;91.10;;;;;;5072922;28;20044;-68
2021/05/30 01:03:27;;;;;;;24.80;17.13;;;10.50;91.20;;;;;;5072899;28;20463;-68
2021/05/30 01:05:54;;;;;;;20.73;16.65;;;10.50;91.30;;;;;;5072704;28;20033;-68
2021/05/30 01:08:27;;;;;;;23.45;16.95;;;10.30;91.70;;;;;;5072798;28;20043;-67
2021/05/30 01:10:55;;;;;;;19.33;16.77;;;10.40;91.70;;;;;;5072654;28;20055;-68
2021/05/30 01:13:23;;;;;;;22.25;17.27;;;10.40;92.10;;;;;;5072705;28;20539;-67
2021/05/30 01:15:49;;;;;;;23.45;15.60;;;10.40;91.90;;;;;;5072557;28;20036;-67
2021/05/30 01:18:20;;;;;;;22.52;16.00;;;10.40;91.70;;;;;;5072622;28;20055;-68
2021/05/30 01:20:48;;;;;;;21.75;16.15;;;10.30;91.80;;;;;;5072512;28;20040;-67
2021/05/30 01:23:15;;;;;;;22.67;15.48;;;10.40;91.80;;;;;;5072673;28;20079;-67
2021/05/30 01:25:41;;;;;;;20.98;16.58;;;10.40;91.80;;;;;;5072347;28;20040;-68
2021/05/30 01:28:07;;;;;;;16.38;13.77;;;10.40;91.80;;;;;;5054528;28;20037;-68
2021/05/30 01:30:34;;;;;;;16.20;14.02;;;10.40;91.20;;;;;;5072121;28;20105;-67
2021/05/30 01:33:00;;;;;;;18.98;14.90;;;10.20;91.40;;;;;;5072355;28;20112;-68
2021/05/30 01:35:26;;;;;;;21.23;16.23;;;10.30;91.40;;;;;;5054467;28;20045;-68
2021/05/30 01:37:52;;;;;;;22.85;15.27;;;10.30;91.70;;;;;;5072623;28;20381;-68
2021/05/30 01:40:19;;;;;;;22.10;14.43;;;10.40;91.50;;;;;;5071964;28;20083;-67
2021/05/30 01:42:46;;;;;;;19.38;14.68;;;10.30;91.50;;;;;;5072231;28;20072;-67
2021/05/30 01:45:12;;;;;;;16.40;13.98;;;10.20;91.40;;;;;;5072003;28;20119;-67
2021/05/30 01:47:39;;;;;;;16.98;13.23;;;10.10;91.60;;;;;;5072157;28;20047;-68
2021/05/30 01:50:07;;;;;;;17.75;14.07;;;10.10;91.70;;;;;;5071959;28;20040;-67
2021/05/30 01:52:35;;;;;;;19.95;15.52;;;10.10;91.60;;;;;;5071099;28;20047;-68
2021/05/30 01:55:01;;;;;;;24.95;15.13;;;10.10;91.80;;;;;;5071880;28;20501;-67
2021/05/30 01:57:27;;;;;;;23.27;16.92;;;10.20;91.70;;;;;;5071902;28;20041;-69
2021/05/30 01:59:53;;;;;;;19.58;16.10;;;10.20;91.70;;;;;;5071746;28;20063;-68
2021/05/30 02:02:23;;;;;;;22.30;16.02;;;10.30;91.80;;;;;;5071818;28;20111;-64
2021/05/30 02:04:49;;;;;;;26.13;15.65;;;10.20;91.90;;;;;;5071782;28;20055;-64
2021/05/30 02:07:15;;;;;;;21.98;15.88;;;10.20;92.00;;;;;;5071709;28;20041;-64
2021/05/30 02:09:43;;;;;;;22.13;16.02;;;10.20;92.10;;;;;;5053699;28;20048;-64
2021/05/30 02:12:09;;;;;;;21.52;15.75;;;10.30;92.20;;;;;;5071458;28;20482;-64
2021/05/30 02:14:35;;;;;;;21.75;16.23;;;10.30;92.00;;;;;;5071554;28;20091;-64
2021/05/30 02:17:02;;;;;;;21.85;16.35;;;10.30;92.00;;;;;;5071412;28;20511;-64
2021/05/30 02:19:28;;;;;;;22.08;17.05;;;10.30;92.20;;;;;;5071586;28;20044;-64
2021/05/30 02:21:54;;;;;;;24.67;18.65;;;10.30;92.10;;;;;;5071318;28;20040;-64
2021/05/30 02:24:22;;;;;;;21.30;16.55;;;10.40;91.80;;;;;;5053496;28;20067;-64
2021/05/30 02:26:48;;;;;;;24.23;16.95;;;10.40;92.20;;;;;;5070985;28;20051;-64
2021/05/30 02:29:50;;;;;;;25.52;16.85;;;10.40;91.80;;;;;;5071212;28;20064;-64
2021/05/30 02:32:16;;;;;;;26.85;17.60;;;10.40;92.00;;;;;;4989181;28;20077;-64
2021/05/30 02:34:43;;;;;;;24.10;16.40;;;10.40;91.50;;;;;;5037077;28;20048;-64
2021/05/30 02:37:15;;;;;;;20.95;14.85;;;10.30;91.80;;;;;;5071419;28;20043;-64
2021/05/30 02:39:40;;;;;;;22.67;15.93;;;10.20;91.50;;;;;;5070895;28;20052;-64
2021/05/30 02:42:07;;;;;;;26.70;15.98;;;10.20;92.00;;;;;;5070916;28;20032;-64
2021/05/30 02:44:33;;;;;;;22.05;15.23;;;10.20;91.70;;;;;;5070903;28;20039;-64
2021/05/30 02:46:59;;;;;;;24.42;15.25;;;10.10;91.90;;;;;;5070796;28;20040;-64
2021/05/30 02:49:25;;;;;;;23.05;15.05;;;10.10;92.00;;;;;;5070747;28;20059;-64
2021/05/30 02:51:52;;;;;;;19.27;14.10;;;10.10;92.30;;;;;;5070652;28;20041;-64
2021/05/30 02:54:18;;;;;;;23.65;14.95;;;10.00;92.30;;;;;;5070974;28;20094;-64
2021/05/30 02:56:44;;;;;;;20.75;14.70;;;10.00;92.60;;;;;;5070835;28;20041;-64
2021/05/30 02:59:09;;;;;;;25.17;15.02;;;10.00;92.60;;;;;;5071019;28;20143;-64
2021/05/30 03:01:35;;;;;;;22.45;16.42;;;10.10;92.60;;;;;;5070509;28;20492;-64
2021/05/30 03:04:01;;;;;;;24.92;16.40;;;10.10;92.70;;;;;;5070410;28;20041;-64
2021/05/30 03:06:27;;;;;;;22.48;16.35;;;10.10;92.50;;;;;;5052575;28;20048;-64
2021/05/30 03:08:53;;;;;;;22.10;15.48;;;10.10;92.70;;;;;;5070426;28;20039;-64
2021/05/30 03:11:22;;;;;;;22.40;16.33;;;10.00;92.40;;;;;;5070441;28;20052;-64
2021/05/30 03:13:51;;;;;;;23.35;15.13;;;10.00;92.40;;;;;;5070373;28;20119;-64
2021/05/30 03:16:17;;;;;;;23.70;14.93;;;10.00;92.70;;;;;;5070187;28;20067;-64
2021/05/30 03:18:44;;;;;;;20.42;14.43;;;9.90;92.50;;;;;;5070323;28;20120;-64
2021/05/30 03:21:09;;;;;;;19.52;13.82;;;9.80;92.40;;;;;;5070025;28;20048;-64
2021/05/30 03:23:35;;;;;;;19.05;14.10;;;9.80;92.80;;;;;;5069645;28;20036;-64
2021/05/30 03:26:01;;;;;;;21.23;14.43;;;9.70;92.80;;;;;;5069482;28;20044;-64
2021/05/30 03:28:27;;;;;;;19.10;13.82;;;9.60;93.20;;;;;;5069965;28;20474;-64
2021/05/30 03:30:52;;;;;;;17.48;13.48;;;9.50;93.20;;;;;;5070237;28;20664;-64
2021/05/30 03:33:18;;;;;;;14.73;12.73;;;9.50;93.20;;;;;;5070243;28;20115;-64
2021/05/30 03:35:45;;;;;;;21.15;14.02;;;9.50;93.20;;;;;;5070353;28;20044;-64
2021/05/30 03:38:12;;;;;;;19.00;13.18;;;9.40;93.20;;;;;;5070403;28;20067;-64
2021/05/30 03:40:46;;;;;;;19.77;13.20;;;9.30;93.40;;;;;;5070168;28;20096;-64
2021/05/30 03:43:13;;;;;;;20.77;13.77;;;9.30;93.30;;;;;;5070262;28;20120;-64
2021/05/30 03:45:39;;;;;;;16.98;12.73;;;9.30;93.20;;;;;;5070257;28;20037;-64
2021/05/30 03:48:05;;;;;;;18.73;12.70;;;9.30;93.20;;;;;;5070179;28;20040;-64
2021/05/30 03:50:32;;;;;;;19.38;13.50;;;9.20;93.20;;;;;;5070102;28;20052;-64
2021/05/30 03:52:58;;;;;;;17.60;13.63;;;9.10;93.30;;;;;;5052285;28;20032;-64
2021/05/30 03:55:23;;;;;;;18.65;12.52;;;9.10;93.40;;;;;;5070018;28;20079;-64
2021/05/30 03:57:49;;;;;;;21.52;13.10;;;9.10;93.50;;;;;;5069852;28;20041;-64
2021/05/30 04:00:18;;;;;;;26.30;13.63;;;9.10;93.50;;;;;;5069942;28;20510;-64
2021/05/30 04:02:44;;;;;;;16.83;13.52;;;9.10;93.40;;;;;;5069742;28;20037;-64
2021/05/30 04:05:11;;;;;;;18.58;13.00;;;9.10;93.60;;;;;;5069866;28;20044;-64
2021/05/30 04:07:38;;;;;;;17.17;13.18;;;9.10;93.60;;;;;;5052043;28;20098;-64
2021/05/30 04:10:07;;;;;;;19.13;13.07;;;9.10;93.70;;;;;;5069768;28;20436;-64
2021/05/30 04:12:36;;;;;;;18.00;12.85;;;9.10;93.80;;;;;;5069737;28;20033;-64
2021/05/30 04:15:04;;;;;;;18.23;12.80;;;9.10;93.60;;;;;;5070901;28;20032;-64
2021/05/30 04:17:30;;;;;;;16.88;13.13;;;9.10;93.70;;;;;;5073640;28;20048;-64
2021/05/30 04:19:55;;;;;;;17.63;13.02;;;9.20;93.80;;;;;;5073719;28;20044;-64
2021/05/30 04:22:21;;;;;;;18.55;13.32;;;9.20;93.60;;;;;;5073584;28;20402;-64
2021/05/30 04:24:46;;;;;;;16.90;13.05;;;9.30;93.60;;;;;;5073765;28;20063;-64
2021/05/30 04:27:12;;;;;;;19.15;14.73;;;9.30;93.70;;;;;;5073949;28;20116;-64
2021/05/30 04:29:38;;;;;;;24.65;15.07;;;9.30;93.70;;;;;;5073329;28;20090;-64
2021/05/30 04:32:04;;;;;;;19.30;14.70;;;9.30;93.80;;;;;;5055682;28;20036;-64
2021/05/30 04:34:30;;;;;;;18.70;13.88;;;9.40;93.90;;;;;;5073533;28;20402;-64
2021/05/30 04:36:56;;;;;;;18.13;13.57;;;9.50;93.80;;;;;;5073668;28;20048;-64
2021/05/30 04:39:22;;;;;;;19.88;14.98;;;9.50;93.70;;;;;;5055265;28;20160;-64
2021/05/30 04:41:48;;;;;;;19.92;14.20;;;9.50;93.70;;;;;;5073422;28;20086;-64
2021/05/30 04:44:13;;;;;;;19.38;13.30;;;9.40;93.90;;;;;;5073328;28;20304;-64
2021/05/30 04:46:39;;;;;;;20.95;14.63;;;9.30;94.20;;;;;;5055447;28;20036;-64
2021/05/30 04:49:04;;;;;;;20.27;15.13;;;9.30;94.40;;;;;;5055303;28;20044;-64
2021/05/30 04:51:30;;;;;;;21.98;14.25;;;9.30;94.30;;;;;;5073276;28;20086;-64
2021/05/30 04:53:58;;;;;;;18.42;14.48;;;9.30;94.40;;;;;;5073030;28;20037;-64
2021/05/30 04:56:24;;;;;;;18.33;14.40;;;9.40;94.50;;;;;;5073029;28;20123;-64
2021/05/30 04:58:50;;;;;;;22.20;15.25;;;9.40;94.40;;;;;;5072867;28;20120;-64
2021/05/30 05:01:16;;;;;;;21.98;15.48;;;9.40;94.30;;;;;;5072996;28;20032;-64
2021/05/30 05:03:42;;;;;;;23.48;15.48;;;9.50;94.40;;;;;;5072974;28;20044;-64
2021/05/30 05:06:08;;;;;;;20.67;15.63;;;9.60;94.30;;;;;;5073086;28;20098;-64
2021/05/30 05:08:34;;;;;;;19.75;14.93;;;9.60;94.20;;;;;;5072655;28;20041;-64
2021/05/30 05:11:00;;;;;;;20.88;15.48;;;9.80;94.10;;;;;;5072700;28;20098;-64
2021/05/30 05:13:26;;;;;;;20.80;16.52;;;9.80;93.70;;;;;;5054659;28;20040;-64
2021/05/30 05:15:53;;;;;;;27.48;17.90;;;9.90;93.50;;;;;;5072639;28;20094;-64
2021/05/30 05:18:21;;;;;;;26.02;16.20;;;10.00;93.30;;;;;;5072635;28;20102;-64
2021/05/30 05:20:47;;;;;;;22.60;16.77;;;10.00;93.20;;;;;;5072605;28;20040;-64
2021/05/30 05:23:22;;;;;;;23.50;17.92;;;10.10;93.10;;;;;;5072607;28;20209;-64
2021/05/30 05:25:48;;;;;;;22.48;16.45;;;10.00;93.20;;;;;;5054459;28;20037;-64
2021/05/30 05:28:14;;;;;;;22.75;17.90;;;10.20;93.10;;;;;;5072410;28;20068;-64
2021/05/30 05:30:40;;;;;;;26.15;17.30;;;10.20;92.60;;;;;;5072235;28;20114;-64
2021/05/30 05:33:05;;;;;;;24.20;16.95;;;10.30;92.70;;;;;;5054436;28;20037;-64
2021/05/30 05:35:31;;;;;;;28.13;18.55;;;10.40;92.70;;;;;;5072203;28;20036;-64
2021/05/30 05:37:58;;;;;;;24.63;17.83;;;10.50;92.40;;;;;;5072176;28;20036;-64
2021/05/30 05:40:25;;;;;;;23.63;17.73;;;10.70;92.20;;;;;;5054155;28;20056;-64
2021/05/30 05:42:52;;;;;;;22.98;17.38;;;10.70;91.80;;;;;;5072156;28;20094;-64
2021/05/30 05:45:23;;;;;;;21.85;17.10;;;10.90;91.60;;;;;;5072044;28;20120;-64
2021/05/30 05:47:57;;;;;;;24.13;16.30;;;11.00;91.30;;;;;;5072169;28;20485;-64
2021/05/30 05:50:24;;;;;;;25.80;17.60;;;12.00;90.50;;;;;;5071822;28;20043;-64
2021/05/30 05:52:50;;;;;;;21.52;16.70;;;12.80;88.80;;;;;;5072063;28;20048;-64
2021/05/30 05:55:18;;;;;;;22.88;16.40;;;13.80;83.50;;;;;;5071795;28;20121;-65
2021/05/30 05:57:47;;;;;;;21.05;15.18;;;14.10;82.60;;;;;;5071962;28;20040;-65
2021/05/30 06:00:15;;;;;;;21.98;16.05;;;15.10;79.10;;;;;;5071733;28;20068;-65
2021/05/30 06:02:42;;;;;;;21.40;15.65;;;15.20;76.70;;;;;;5053897;28;20493;-64
2021/05/30 06:05:08;;;;;;;16.65;14.70;;;16.50;76.90;;;;;;5071657;28;20043;-65
2021/05/30 06:07:38;;;;;;;19.33;14.57;;;16.60;73.40;;;;;;5053774;28;20094;-65
2021/05/30 06:10:04;;;;;;;17.63;13.80;;;17.80;69.20;;;;;;5071389;28;20041;-65
2021/05/30 06:12:31;;;;;;;19.20;14.05;;;19.10;69.40;;;;;;5071988;28;20059;-65
2021/05/30 06:14:57;;;;;;;20.35;15.77;;;19.60;64.60;;;;;;5071530;28;20450;-65
2021/05/30 06:17:23;;;;;;;18.25;15.10;;;18.90;62.70;;;;;;5071837;28;20041;-65
2021/05/30 06:19:49;;;;;;;15.48;12.98;;;20.20;61.20;;;;;;5071397;28;20142;-65
2021/05/30 06:22:18;;;;;;;17.60;14.32;;;20.80;63.10;;;;;;5071330;28;20036;-65
2021/05/30 06:24:44;;;;;;;19.50;14.15;;;21.20;59.10;;;;;;5071150;28;20036;-65
2021/05/30 06:27:11;;;;;;;16.08;13.27;;;21.10;62.60;;;;;;5071345;28;20090;-65
2021/05/30 06:29:37;;;;;;;20.05;14.20;;;20.80;58.20;;;;;;5071063;28;20052;-65
2021/05/30 06:32:02;;;;;;;19.77;13.50;;;21.70;59.90;;;;;;5071258;28;20044;-65
2021/05/30 06:34:28;;;;;;;17.65;12.82;;;20.80;56.00;;;;;;5071209;28;20040;-65
2021/05/30 06:36:54;;;;;;;18.45;13.52;;;21.10;54.90;;;;;;5070957;28;20048;-65
2021/05/30 06:39:21;;;;;;;15.32;12.23;;;21.30;54.70;;;;;;5070451;28;20064;-65
2021/05/30 06:41:47;;;;;;;15.60;10.25;;;20.40;57.70;;;;;;5070931;28;20032;-65
2021/05/30 06:44:12;;;;;;;14.00;10.98;;;22.00;59.30;;;;;;5071020;28;20544;-65
2021/05/30 06:46:38;;;;;;;12.73;10.70;;;22.40;57.50;;;;;;5070757;28;20046;-65
2021/05/30 06:49:04;;;;;;;14.18;10.75;;;23.10;56.50;;;;;;5070734;28;20123;-65
2021/05/30 06:51:31;;;;;;;15.85;11.43;;;22.80;51.40;;;;;;5070720;28;20397;-65
2021/05/30 06:53:59;;;;;;;12.05;9.73;;;23.10;53.60;;;;;;5052997;28;20043;-65
2021/05/30 06:56:25;;;;;;;14.25;10.13;;;23.60;54.60;;;;;;5070821;28;20123;-65
2021/05/30 06:58:50;;;;;;;17.35;11.00;;;23.50;51.80;;;;;;5070652;28;20139;-65
2021/05/30 07:01:18;;;;;;;15.60;10.77;;;23.90;49.70;;;;;;5052780;28;20094;-65
2021/05/30 07:03:45;;;;;;;12.48;9.88;;;24.00;49.10;;;;;;5070566;28;20032;-65
2021/05/30 07:06:11;;;;;;;15.30;9.35;;;24.40;50.40;;;;;;5052575;28;20439;-65
2021/05/30 07:08:56;;;;;;;13.10;9.93;;;24.60;50.20;;;;;;5055733;28;20398;-65
2021/05/30 07:11:22;;;;;;;13.70;9.70;;;24.10;49.00;;;;;;5070396;28;20091;-65
2021/05/30 07:13:48;;;;;;;14.48;9.40;;;23.60;50.00;;;;;;5070423;28;20036;-65
2021/05/30 07:16:14;;;;;;;14.23;9.95;;;24.30;51.40;;;;;;5052422;28;20547;-65
2021/05/30 07:18:40;;;;;;;12.55;9.52;;;24.70;49.30;;;;;;5070361;28;20044;-65
2021/05/30 07:21:06;;;;;;;15.02;10.55;;;24.10;46.20;;;;;;5070238;28;20036;-65
2021/05/30 07:23:32;;;;;;;12.27;8.90;;;21.40;50.60;;;;;;5070529;28;20052;-65
2021/05/30 07:25:58;;;;;;;11.68;8.52;;;22.50;54.60;;;;;;5070203;28;20036;-65
2021/05/30 07:28:24;;;;;;;10.60;7.82;;;22.70;50.90;;;;;;5070370;28;20051;-65
2021/05/30 07:30:50;;;;;;;14.45;9.27;;;23.90;52.30;;;;;;5070189;28;20412;-65
2021/05/30 07:33:16;;;;;;;12.60;8.82;;;23.30;47.30;;;;;;5052264;28;20041;-65
2021/05/30 07:35:41;;;;;;;12.07;8.05;;;23.90;47.80;;;;;;5070144;28;20182;-65
2021/05/30 07:38:07;;;;;;;10.15;7.68;;;23.40;48.40;;;;;;5070264;28;20075;-66
2021/05/30 07:40:34;;;;;;;10.07;7.75;;;24.80;49.50;;;;;;5070140;28;20061;-65
2021/05/30 07:43:01;;;;;;;13.45;7.85;;;25.20;45.90;;;;;;5070092;28;20040;-65
2021/05/30 07:45:29;;;;;;;12.40;7.85;;;25.20;47.70;;;;;;5052370;28;20520;-65
2021/05/30 07:47:57;;;;;;;12.73;7.35;;;24.30;44.90;;;;;;5070331;28;20060;-65
2021/05/30 07:50:23;;;;;;;11.88;7.68;;;24.10;49.80;;;;;;5071792;28;20036;-65
2021/05/30 07:52:50;;;;;;;10.27;6.95;;;24.90;51.30;;;;;;5074418;28;20036;-65
2021/05/30 07:55:17;;;;;;;12.45;7.22;;;25.10;45.90;;;;;;5082302;22;20167;-65
2021/05/30 07:57:44;;;;;;;10.82;7.28;;;25.30;48.50;;;;;;5074105;28;20050;-66
2021/05/30 08:00:11;;;;;;;9.77;6.93;;;24.40;48.10;;;;;;5074097;28;20043;-65
2021/05/30 08:02:38;;;;;;;13.45;7.95;;;25.00;47.50;;;;;;5056305;28;20135;-65
2021/05/30 08:05:06;;;;;;;11.00;7.15;;;23.70;46.30;;;;;;5073902;28;20037;-65
2021/05/30 08:07:31;;;;;;;12.18;7.50;;;24.10;49.30;;;;;;5073873;28;20121;-64
2021/05/30 08:09:57;;;;;;;9.60;7.00;;;23.60;49.30;;;;;;5073788;28;20454;-65
2021/05/30 08:12:30;;;;;;;13.00;7.78;;;22.70;51.40;;;;;;5073785;28;20605;-65
2021/05/30 08:14:56;;;;;;;12.93;7.80;;;21.50;53.50;;;;;;5073775;28;20033;-65
2021/05/30 08:17:22;;;;;;;11.40;8.43;;;21.40;55.50;;;;;;5073749;28;20043;-65
2021/05/30 08:19:48;;;;;;;9.95;7.60;;;21.20;55.00;;;;;;5073770;28;20393;-65
2021/05/30 08:22:13;;;;;;;11.77;8.65;;;20.30;58.60;;;;;;5073566;28;20111;-65
2021/05/30 08:24:41;;;;;;;10.40;7.40;;;20.30;57.90;;;;;;5073710;28;20039;-65
2021/05/30 08:27:08;;;;;;;9.88;8.88;;;19.50;60.50;;;;;;5073489;28;20040;-65
2021/05/30 08:29:34;;;;;;;11.00;8.07;;;18.60;61.60;;;;;;5073443;28;20123;-65
2021/05/30 08:31:59;;;;;;;13.05;8.85;;;18.90;63.20;;;;;;5073905;28;20120;-65
2021/05/30 08:34:26;;;;;;;10.93;9.02;;;19.10;63.30;;;;;;5073567;28;20036;-65
2021/05/30 08:36:52;;;;;;;14.65;9.85;;;18.30;64.30;;;;;;5073289;28;20036;-65
2021/05/30 08:39:18;;;;;;;13.13;8.98;;;17.80;65.10;;;;;;5073388;28;20149;-65
2021/05/30 08:41:44;;;;;;;13.57;9.25;;;17.80;66.90;;;;;;5073320;28;20544;-65
2021/05/30 08:44:10;;;;;;;14.27;8.98;;;17.80;67.80;;;;;;5073213;28;20051;-65
2021/05/30 08:46:37;;;;;;;11.68;8.30;;;17.60;68.60;;;;;;5073292;28;20102;-65
2021/05/30 08:49:03;;;;;;;11.25;8.68;;;17.60;69.10;;;;;;5073351;28;20036;-65
2021/05/30 08:51:29;;;;;;;15.70;8.45;;;17.90;69.20;;;;;;5073073;28;20084;-65
2021/05/30 08:53:55;;;;;;;11.15;8.50;;;17.80;69.30;;;;;;5072860;28;20080;-66
2021/05/30 08:56:21;;;;;;;14.82;8.80;;;18.10;68.20;;;;;;5073078;28;20075;-65
2021/05/30 08:58:48;;;;;;;14.50;9.05;;;18.20;67.80;;;;;;5055034;28;20143;-65
2021/05/30 09:01:25;;;;;;;13.73;8.63;;;18.30;67.20;;;;;;5072655;28;20101;-65
2021/05/30 09:04:06;;;;;;;10.70;8.55;;;18.50;66.90;;;;;;5072974;28;20435;-65
2021/05/30 09:06:34;;;;;;;11.77;8.40;;;18.60;66.70;;;;;;5073001;28;20036;-65
2021/05/30 09:09:00;;;;;;;12.60;8.20;;;18.70;66.40;;;;;;5072631;28;20397;-65
2021/05/30 09:11:41;;;;;;;10.93;8.13;;;18.70;66.20;;;;;;5073306;28;20036;-65
2021/05/30 09:14:17;;;;;;;11.95;8.90;;;18.70;65.20;;;;;;5072540;28;20040;-65
2021/05/30 09:16:47;;;;;;;14.18;7.97;;;18.50;63.40;;;;;;5072737;28;20098;-65
2021/05/30 09:19:35;;;;;;;12.43;8.13;;;18.50;65.50;;;;;;5072468;28;20045;-65
2021/05/30 09:22:27;;;;;;;14.77;8.48;;;18.30;67.20;;;;;;5072547;28;20040;-65
2021/05/30 09:25:00;;;;;;;11.60;8.00;;;18.50;67.70;;;;;;5072656;28;20116;-65
2021/05/30 09:27:27;;;;;;;12.43;7.68;;;18.60;66.80;;;;;;5072401;28;20162;-64
2021/05/30 09:30:19;;;;;;;10.40;7.03;;;18.60;66.30;;;;;;5054252;28;20437;-65
2021/05/30 09:33:04;;;;;;;9.02;7.30;;;18.70;65.90;;;;;;5072419;28;20040;-65
2021/05/30 09:35:43;;;;;;;9.50;7.20;;;18.80;66.10;;;;;;5072345;28;20090;-65
2021/05/30 09:38:21;;;;;;;13.10;7.80;;;18.80;66.00;;;;;;5054406;28;20166;-65
2021/05/30 09:40:56;;;;;;;11.65;8.32;;;18.70;64.90;;;;;;5072419;28;20040;-65
2021/05/30 09:43:36;;;;;;;10.75;8.00;;;18.50;64.90;;;;;;5072120;28;20040;-65
2021/05/30 09:46:06;;;;;;;13.32;7.85;;;18.50;65.30;;;;;;5054103;28;20424;-65
2021/05/30 09:48:34;;;;;;;12.15;8.18;;;18.50;65.90;;;;;;5071988;28;20500;-65
2021/05/30 09:51:21;;;;;;;11.45;8.68;;;18.40;66.70;;;;;;5071992;28;20068;-65
2021/05/30 09:53:46;;;;;;;10.43;8.32;;;18.70;66.90;;;;;;5071774;28;20040;-65
2021/05/30 09:56:40;;;;;;;12.82;7.82;;;18.80;66.60;;;;;;5072036;28;20477;-65
2021/05/30 09:59:11;;;;;;;11.57;8.02;;;18.90;67.30;;;;;;5071784;28;20028;-65
2021/05/30 10:01:58;;;;;;;11.90;8.40;;;19.00;66.10;;;;;;5071920;28;20041;-65
2021/05/30 10:04:27;;;;;;;13.43;7.82;;;19.10;65.30;;;;;;5071778;28;20358;-65
2021/05/30 10:06:55;;;;;;;11.88;8.23;;;19.20;64.70;;;;;;5071726;28;20492;-65
2021/05/30 10:09:21;;;;;;;10.73;7.40;;;19.40;65.40;;;;;;5071938;28;20165;-65
2021/05/30 10:11:47;;;;;;;10.30;7.32;;;19.40;64.90;;;;;;5071474;28;20066;-65
2021/05/30 10:14:13;;;;;;;12.88;8.10;;;19.40;63.40;;;;;;5070811;28;20041;-65
2021/05/30 10:16:39;;;;;;;11.10;7.88;;;19.40;64.40;;;;;;5071642;28;20062;-64
2021/05/30 10:19:33;;;;;;;12.32;8.20;;;19.50;64.20;;;;;;5071423;28;20040;-65
2021/05/30 10:22:00;;;;;;;10.70;8.13;;;19.50;62.70;;;;;;5061945;28;20056;-65
2021/05/30 10:24:27;;;;;;;12.77;9.00;;;19.60;64.30;;;;;;5071232;28;20055;-65
2021/05/30 10:27:16;;;;;;;10.80;8.00;;;19.00;64.30;;;;;;5071296;28;20067;-65
2021/05/30 10:30:08;;;;;;;11.15;8.23;;;19.30;64.60;;;;;;5053248;28;20036;-65
2021/05/30 10:32:35;;;;;;;9.27;7.53;;;19.20;61.90;;;;;;5071174;28;20049;-65
2021/05/30 10:35:24;;;;;;;11.80;7.10;;;19.30;63.70;;;;;;5071071;28;20037;-65
2021/05/30 10:37:50;;;;;;;9.90;7.82;;;19.50;63.20;;;;;;5053363;28;20033;-65
2021/05/30 10:40:22;;;;;;;11.95;9.48;;;19.60;64.00;;;;;;5052953;28;20162;-65
2021/05/30 10:43:23;;;;;;;;;;;19.60;64.70;;;;;;5053541;28;20347;-64
2021/05/30 10:45:49;;;;;;;10.32;7.85;;;19.70;64.40;;;;;;4988905;28;20004;-65
2021/05/30 10:48:17;;;;;;;11.45;7.30;;;19.80;64.20;;;;;;5053500;28;20438;-65
2021/05/30 10:53:42;;;;;;;10.40;7.82;;;19.70;62.50;;;;;;5067773;28;20451;-65
2021/05/30 10:56:13;;;;;;;10.40;7.35;;;19.20;63.10;;;;;;5070684;28;20072;-65
2021/05/30 10:58:40;;;;;;;11.93;8.07;;;19.50;62.70;;;;;;5052784;28;20037;-65
2021/05/30 11:01:35;;;;;;;10.30;7.57;;;19.10;62.60;;;;;;5070486;28;20044;-65
2021/05/30 11:04:28;;;;;;;10.35;7.55;;;19.20;64.90;;;;;;5052672;28;20044;-65
2021/05/30 11:06:53;;;;;;;10.45;7.18;;;19.50;64.80;;;;;;5070559;28;20040;-65
2021/05/30 11:09:20;;;;;;;10.18;7.03;;;19.80;64.50;;;;;;5070338;28;20043;-65
2021/05/30 11:11:46;;;;;;;8.43;6.53;;;19.70;63.70;;;;;;5070425;28;20048;-65
2021/05/30 11:14:14;;;;;;;7.97;7.18;;;20.00;63.60;;;;;;5070532;28;20425;-65
2021/05/30 11:16:48;;;;;;;9.55;6.38;;;20.10;63.40;;;;;;5052459;28;20055;-65
2021/05/30 11:19:19;;;;;;;9.50;6.15;;;20.20;63.50;;;;;;5070387;28;20044;-65
2021/05/30 11:21:49;;;;;;;7.97;5.85;;;20.30;62.20;;;;;;5070673;28;20522;-65
2021/05/30 11:24:18;;;;;;;8.60;6.13;;;20.60;62.60;;;;;;5052264;28;20486;-65
2021/05/30 11:27:06;;;;;;;9.70;6.43;;;20.60;61.80;;;;;;5070193;28;20043;-65
2021/05/30 11:29:32;;;;;;;9.00;6.13;;;20.80;61.70;;;;;;5070360;28;20036;-65
2021/05/30 11:31:59;;;;;;;8.43;5.68;;;20.80;62.50;;;;;;5070221;28;20068;-65
2021/05/30 11:34:33;;;;;;;9.80;6.68;;;20.90;62.00;;;;;;5070165;28;20486;-65
2021/05/30 11:37:10;;;;;;;10.98;5.93;;;20.60;59.70;;;;;;5070170;28;20379;-65
2021/05/30 11:39:40;;;;;;;7.18;5.97;;;20.40;60.80;;;;;;5070481;28;20041;-65
2021/05/30 11:42:06;;;;;;;8.13;5.47;;;20.40;61.30;;;;;;5070119;28;20044;-65
2021/05/30 11:44:33;;;;;;;6.75;5.05;;;20.40;63.30;;;;;;5070184;28;20359;-65
2021/05/30 11:47:08;;;;;;;10.20;5.45;;;20.50;62.50;;;;;;5070071;28;20541;-65
2021/05/30 11:49:36;;;;;;;8.63;5.10;;;20.50;61.60;;;;;;5052369;28;20123;-65
2021/05/30 11:52:02;;;;;;;7.50;5.47;;;20.50;57.80;;;;;;5070024;28;20119;-65
2021/05/30 11:54:34;;;;;;;6.57;4.68;;;20.60;61.40;;;;;;5069991;28;20381;-64
2021/05/30 11:57:06;;;;;;;6.65;4.60;;;20.50;59.20;;;;;;5069955;28;20456;-65
2021/05/30 11:59:43;;;;;;;8.40;5.28;;;20.60;61.50;;;;;;5070024;28;20097;-65
2021/05/30 12:02:10;;;;;;;8.35;5.22;;;20.70;62.10;;;;;;5069912;28;20111;-65
2021/05/30 12:04:40;;;;;;;8.63;4.70;;;20.70;59.00;;;;;;5069986;28;20086;-64
2021/05/30 12:07:11;;;;;;;11.07;5.78;;;20.80;61.50;;;;;;5069887;28;20040;-64
2021/05/30 12:09:58;;;;;;;9.05;4.60;;;20.20;60.70;;;;;;5069842;28;20037;-64
2021/05/30 12:12:26;;;;;;;6.78;5.07;;;20.10;61.30;;;;;;5069825;28;20040;-65
2021/05/30 12:14:52;;;;;;;9.20;5.30;;;20.40;63.00;;;;;;5069848;28;20068;-64
2021/05/30 12:17:19;;;;;;;8.32;4.10;;;20.30;60.00;;;;;;5069763;28;20071;-65
2021/05/30 12:19:45;;;;;;;6.68;4.40;;;20.60;63.70;;;;;;5069716;28;20600;-65
2021/05/30 12:22:25;;;;;;;6.85;4.82;;;20.80;61.50;;;;;;5051641;28;20496;-65
2021/05/30 12:24:52;;;;;;;6.72;4.68;;;20.60;60.40;;;;;;5069768;28;20120;-65
2021/05/30 12:27:18;;;;;;;7.07;4.45;;;21.00;63.30;;;;;;5069654;28;20033;-65
2021/05/30 12:29:48;;;;;;;6.65;4.72;;;21.20;61.80;;;;;;5069814;28;20543;-65
2021/05/30 12:32:18;;;;;;;8.13;4.80;;;21.20;60.80;;;;;;5051676;28;20032;-65
2021/05/30 12:34:45;;;;;;;7.45;5.20;;;21.20;60.30;;;;;;5069705;28;20547;-65
2021/05/30 12:37:11;;;;;;;8.82;5.18;;;21.30;62.90;;;;;;5072364;28;20111;-65
2021/05/30 12:39:37;;;;;;;8.55;5.15;;;21.10;62.20;;;;;;5073418;28;20103;-65
2021/05/30 12:42:17;;;;;;;9.15;5.70;;;20.80;63.70;;;;;;5073521;28;20040;-65
2021/05/30 12:44:50;;;;;;;7.55;5.35;;;20.80;64.20;;;;;;5073307;28;20516;-65
2021/05/30 12:47:22;;;;;;;10.93;5.90;;;20.50;65.20;;;;;;5073239;28;20431;-64